Terminal Aerodrome Forecast
Issued by NWS

Home | Current Version | Previous Version | Text Only | Print | Product List | Glossary On
Versions: 1 2 3 4 5 6 7 8 9 10 11 12 13 14 15 16 17 18 19 20 21 22 23 24 25 26 27 28 29
327
FTUS41 KOKX 070527
TAFGON
TAF
KGON 070527Z 0706/0806 25006KT P6SM SCT250
     FM070800 VRB04KT P6SM SKC
     FM072000 12006KT P6SM BKN250
     FM072200 08006KT P6SM BKN250
     FM080100 04012KT P6SM BKN250=

USA.gov is the U.S. government's official web portal to all federal, state and local government web resources and services.